createdAt,value
2023-05-05T07:19:50.748Z,16.08
2023-05-05T13:29:45.446Z,18.18
2023-05-05T13:44:27.425Z,18.81
2023-05-05T13:45:34.476Z,18.80
2023-05-05T13:46:35.267Z,18.72
2023-05-05T13:47:39.458Z,18.65
2023-05-05T13:48:34.438Z,18.58
2023-05-05T13:49:34.427Z,18.58
2023-05-05T13:50:36.609Z,18.58
2023-05-05T13:51:36.621Z,18.48
2023-05-05T13:52:35.667Z,18.45
2023-05-05T13:53:34.865Z,18.35
2023-05-05T13:54:34.371Z,18.29
2023-05-05T13:55:34.369Z,18.23
2023-05-05T13:56:39.241Z,18.21
2023-05-05T13:57:34.352Z,18.20
2023-05-05T13:58:37.733Z,18.10
2023-05-05T13:59:35.118Z,18.07
2023-05-05T14:00:34.296Z,18.08
2023-05-05T14:01:38.979Z,18.11
2023-05-05T14:02:34.929Z,18.15
2023-05-05T14:03:36.379Z,18.17
2023-05-05T14:04:34.888Z,18.21
2023-05-05T14:05:36.956Z,18.20
2023-05-05T14:07:51.802Z,18.15
2023-05-05T14:09:01.156Z,18.17
2023-05-05T14:09:58.846Z,18.11
2023-05-05T14:11:03.515Z,18.12
2023-05-05T14:13:22.718Z,18.20
2023-05-05T14:46:51.304Z,18.21
2023-05-05T14:51:29.801Z,18.58
2023-05-05T14:52:38.012Z,18.55
2023-05-05T14:54:53.283Z,18.51
2023-05-05T14:56:02.702Z,18.51
2023-05-05T14:57:01.700Z,18.58
2023-05-05T14:58:01.690Z,18.70
2023-05-05T14:59:01.843Z,18.69
2023-05-05T15:00:00.566Z,18.73
2023-05-05T15:01:00.798Z,18.80
2023-05-05T15:02:02.772Z,18.88
2023-05-05T15:03:00.589Z,18.94
2023-05-05T15:04:00.281Z,18.99
2023-05-05T15:05:00.686Z,18.98
2023-05-05T15:06:00.778Z,18.88
2023-05-05T15:07:02.819Z,18.81
2023-05-05T15:08:02.328Z,18.81
2023-05-05T15:09:00.164Z,18.78
2023-05-05T15:10:02.349Z,18.84
2023-05-05T15:11:01.261Z,18.91
2023-05-05T18:43:53.845Z,14.52
2023-05-05T18:44:56.413Z,14.50
2023-05-05T18:45:58.830Z,14.47
2023-05-05T18:46:56.134Z,14.50
2023-05-05T19:02:21.025Z,14.36
2023-05-05T19:03:26.267Z,14.33
2023-05-05T19:04:31.207Z,14.29
2023-05-05T19:05:30.427Z,14.28
